Iolcos Pride — 9HA2089 — position and weather

sailwx.info

Track history (hours):
 
Tides and Currents Weather Stations Pressure Air Temp Water Temp Dewpoint Dewpoint Depression Visibility Wind Speed Wind Dir Waves Ship Positions

Iolcos Pride

Last reported at 2017-Dec-11 02:15 UTC. Time now 2017-Dec-11 04:22 UTC.
Position N 51°23' E 002°41'.

Length 229 m; draft 8 m.

Type: Cargo ship. MMSI: 249945000.

Date/timePositionNaut miles runAvg speedWind from/ knotsBaromVisibWave heightAir tempDewpointWater temp
2017-Dec-11 02:15N 51°23' E 002°41'2 8.1
2017-Dec-11 02:00N 51°22' E 002°44'5 9.6
2017-Dec-11 01:30N 51°22' E 002°51'713.7
2017-Dec-11 01:00N 51°24' E 003°02'713.8
2017-Dec-11 00:31N 51°24' E 003°13'714.0
2017-Dec-11 00:00N 51°25' E 003°24'612.9
2017-Dec-10 23:30N 51°26' E 003°34'5 9.5
2017-Dec-10 23:00N 51°26' E 003°42'613.0
2017-Dec-10 22:30N 51°21' E 003°49'1 2.3
2017-Dec-10 22:00N 51°20' E 003°49'0 0.5
2017-Dec-10 21:31N 51°19' E 003°49'2 3.2
2017-Dec-10 21:00N 51°18' E 003°50'3 6.5
2017-Dec-10 20:30N 51°15' E 003°49'3 6.8
2017-Dec-10 20:01N 51°11' E 003°48'1 2.5
2017-Dec-10 19:30N 51°10' E 003°48'0 0.4
2017-Dec-10 18:58N 51°10' E 003°48'0 0.0
2017-Dec-10 18:25N 51°10' E 003°48'0 0.0
2017-Dec-10 17:55N 51°10' E 003°48'0 0.0
2017-Dec-10 17:19N 51°10' E 003°48'0 0.0
2017-Dec-10 16:55N 51°10' E 003°48'0 0.0
2017-Dec-10 16:25N 51°10' E 003°48'0 0.0
2017-Dec-10 15:55N 51°10' E 003°48'0 0.0
2017-Dec-10 15:25N 51°10' E 003°48'0 0.0
2017-Dec-10 14:55N 51°10' E 003°48'0 0.0
2017-Dec-10 14:25N 51°10' E 003°48'0 0.0
2017-Dec-10 13:58N 51°10' E 003°48'0 0.0
2017-Dec-10 13:25N 51°10' E 003°48'0 0.0
2017-Dec-10 12:58N 51°10' E 003°48'0 0.0
2017-Dec-10 12:25N 51°10' E 003°48'0 0.0
2017-Dec-10 11:55N 51°10' E 003°48'0 0.0
2017-Dec-10 11:25N 51°10' E 003°48'0 0.0
2017-Dec-10 10:55N 51°10' E 003°48'0 0.0
2017-Dec-10 10:28N 51°10' E 003°48'0 0.0
2017-Dec-10 09:55N 51°10' E 003°48'0 0.0
2017-Dec-10 09:25N 51°10' E 003°48'0 0.0
2017-Dec-10 08:58N 51°10' E 003°48'0 0.0
2017-Dec-10 08:25N 51°10' E 003°48'0 0.0
2017-Dec-10 07:55N 51°10' E 003°48'0 0.0
2017-Dec-10 07:25N 51°10' E 003°48'0 0.0
2017-Dec-10 06:55N 51°10' E 003°48'0 0.0
2017-Dec-10 06:28N 51°10' E 003°48'0 0.0
2017-Dec-10 05:58N 51°10' E 003°48'0 0.0
2017-Dec-10 05:25N 51°10' E 003°48'0 0.0
2017-Dec-10 04:55N 51°10' E 003°48'0 0.0
2017-Dec-10 04:28N 51°10' E 003°48'0 0.0
2017-Dec-10 03:58N 51°10' E 003°48'0 0.0
2017-Dec-10 03:28N 51°10' E 003°48'0 0.0
2017-Dec-10 02:58N 51°10' E 003°48'0 0.0
2017-Dec-10 02:25N 51°10' E 003°48'0 0.0
2017-Dec-10 01:58N 51°10' E 003°48'0 0.0
2017-Dec-10 01:28N 51°10' E 003°48'0 0.0
2017-Dec-10 00:55N 51°10' E 003°48'0 0.0
2017-Dec-10 00:28N 51°10' E 003°48'0 0.0
2017-Dec-09 23:55N 51°10' E 003°48'0 0.0
2017-Dec-09 23:28N 51°10' E 003°48'0 0.0
2017-Dec-09 22:58N 51°10' E 003°48'0 0.0
2017-Dec-09 22:25N 51°10' E 003°48'0 0.0
2017-Dec-09 21:58N 51°10' E 003°48'0 0.0
2017-Dec-09 21:25N 51°10' E 003°48'0 0.0
2017-Dec-09 20:58N 51°10' E 003°48'0 0.0
2017-Dec-09 20:28N 51°10' E 003°48'0 0.0
2017-Dec-09 19:55N 51°10' E 003°48'0 0.0
2017-Dec-09 19:25N 51°10' E 003°48'0 0.0
2017-Dec-09 18:58N 51°10' E 003°48'0 0.0
2017-Dec-09 18:25N 51°10' E 003°48'0 0.0
2017-Dec-09 17:55N 51°10' E 003°48'0 0.0
2017-Dec-09 17:25N 51°10' E 003°48'0 0.0
2017-Dec-09 16:55N 51°10' E 003°48'0 0.0
2017-Dec-09 16:25N 51°10' E 003°48'0 0.0
2017-Dec-09 15:55N 51°10' E 003°48'0 0.0
2017-Dec-09 15:25N 51°10' E 003°48'0 0.0
2017-Dec-09 14:58N 51°10' E 003°48'0 0.0
2017-Dec-09 14:25N 51°10' E 003°48'0 0.0
2017-Dec-09 13:55N 51°10' E 003°48'0 0.0
2017-Dec-09 13:25N 51°10' E 003°48'0 0.0
2017-Dec-09 12:55N 51°10' E 003°48'0 0.0
2017-Dec-09 12:28N 51°10' E 003°48'0 0.0
2017-Dec-09 11:55N 51°10' E 003°48'0 0.0
2017-Dec-09 11:25N 51°10' E 003°48'0 0.0
2017-Dec-09 10:58N 51°10' E 003°48'0 0.0
2017-Dec-09 10:25N 51°10' E 003°48'0 0.0
2017-Dec-09 09:58N 51°10' E 003°48'0 0.0
2017-Dec-09 09:28N 51°10' E 003°48'0 0.0
2017-Dec-09 08:58N 51°10' E 003°48'0 0.0
2017-Dec-09 08:25N 51°10' E 003°48'0 0.0
2017-Dec-09 07:58N 51°10' E 003°48'0 0.0
2017-Dec-09 07:22N 51°10' E 003°48'0 0.0
2017-Dec-09 06:58N 51°10' E 003°48'0 0.0
2017-Dec-09 06:28N 51°10' E 003°48'0 0.0
2017-Dec-09 05:58N 51°10' E 003°48'0 0.0
2017-Dec-09 05:28N 51°10' E 003°48'0 0.0
2017-Dec-09 04:52N 51°10' E 003°48'0 0.0
2017-Dec-09 04:28N 51°10' E 003°48'0 0.0
2017-Dec-09 03:58N 51°10' E 003°48'0 0.0
2017-Dec-09 03:28N 51°10' E 003°48'0 0.0
2017-Dec-09 02:58N 51°10' E 003°48'0 0.0
2017-Dec-09 02:28N 51°10' E 003°48'0 0.0
2017-Dec-09 01:58N 51°10' E 003°48'0 0.0
2017-Dec-09 01:28N 51°10' E 003°48'0 0.0
2017-Dec-09 00:58N 51°10' E 003°48'0 0.0
2017-Dec-09 00:28N 51°10' E 003°48'0 0.0
2017-Dec-08 23:55N 51°10' E 003°48'0 0.0
2017-Dec-08 23:28N 51°10' E 003°48'0 0.0
2017-Dec-08 22:55N 51°10' E 003°48'0 0.0
2017-Dec-08 22:28N 51°10' E 003°48'0 0.0
2017-Dec-08 21:58N 51°10' E 003°48'0 0.0
2017-Dec-08 21:28N 51°10' E 003°48'0 0.0
2017-Dec-08 20:55N 51°10' E 003°48'0 0.0
2017-Dec-08 20:28N 51°10' E 003°48'0 0.0
2017-Dec-08 19:55N 51°10' E 003°48'0 0.0
2017-Dec-08 19:25N 51°10' E 003°48'0 0.0
2017-Dec-08 18:55N 51°10' E 003°48'0 0.0
2017-Dec-08 18:28N 51°10' E 003°48'0 0.0
2017-Dec-08 17:58N 51°10' E 003°48'0 0.0
2017-Dec-08 17:19N 51°10' E 003°48'0 0.0
2017-Dec-08 16:55N 51°10' E 003°48'0 0.0
2017-Dec-08 16:28N 51°10' E 003°48'0 0.0
2017-Dec-08 15:55N 51°10' E 003°48'0 0.0
2017-Dec-08 15:28N 51°10' E 003°48'0 0.0
2017-Dec-08 14:52N 51°10' E 003°48'0 0.0
2017-Dec-08 14:28N 51°10' E 003°48'0 0.0
2017-Dec-08 13:58N 51°10' E 003°48'0 0.0
2017-Dec-08 13:25N 51°10' E 003°48'0 0.0
2017-Dec-08 12:58N 51°10' E 003°48'0 0.0
2017-Dec-08 12:25N 51°10' E 003°48'0 0.0
2017-Dec-08 11:55N 51°10' E 003°48'0 0.0
2017-Dec-08 11:28N 51°10' E 003°48'0 0.0
2017-Dec-08 10:58N 51°10' E 003°48'0 0.0
2017-Dec-08 10:28N 51°10' E 003°48'0 0.0
2017-Dec-08 09:55N 51°10' E 003°48'0 0.0
2017-Dec-08 09:25N 51°10' E 003°48'0 0.0
2017-Dec-08 08:55N 51°10' E 003°48'0 0.0
2017-Dec-08 08:28N 51°10' E 003°48'0 0.0
2017-Dec-08 07:52N 51°10' E 003°48'0 0.0
2017-Dec-08 07:28N 51°10' E 003°48'0 0.0
2017-Dec-08 06:55N 51°10' E 003°48'0 0.0
2017-Dec-08 06:25N 51°10' E 003°48'0 0.0
2017-Dec-08 05:52N 51°10' E 003°48'0 0.0
2017-Dec-08 05:28N 51°10' E 003°48'0 0.0
2017-Dec-08 04:55N 51°10' E 003°48'0 0.0
2017-Dec-08 04:28N 51°10' E 003°48'0 0.0
2017-Dec-08 03:58N 51°10' E 003°48'0 0.0
2017-Dec-08 03:25N 51°10' E 003°48'0 0.0
2017-Dec-08 02:58N 51°10' E 003°48'0 0.0
2017-Dec-08 02:25N 51°10' E 003°48'0 0.0
2017-Dec-08 01:55N 51°10' E 003°48'0 0.0
2017-Dec-08 01:28N 51°10' E 003°48'0 0.0
2017-Dec-08 00:58N 51°10' E 003°48'0 0.0
2017-Dec-08 00:28N 51°10' E 003°48'0 0.0
2017-Dec-07 23:58N 51°10' E 003°48'0 0.0
2017-Dec-07 23:28N 51°10' E 003°48'0 0.0
2017-Dec-07 22:58N 51°10' E 003°48'0 0.0
2017-Dec-07 22:28N 51°10' E 003°48'0 0.0
2017-Dec-07 21:58N 51°10' E 003°48'0 0.0
2017-Dec-07 21:25N 51°10' E 003°48'0 0.1
2017-Dec-07 21:00N 51°10' E 003°48'1 1.8
2017-Dec-07 20:30N 51°11' E 003°48'2 4.2
2017-Dec-07 20:01N 51°13' E 003°48'2 4.3
2017-Dec-07 19:30N 51°15' E 003°50'2 4.3
2017-Dec-07 19:00N 51°17' E 003°50'2 4.1
2017-Dec-07 18:30N 51°19' E 003°49'0 0.7
2017-Dec-07 17:59N 51°20' E 003°49'0 0.3
2017-Dec-07 17:30N 51°20' E 003°49'1 1.4
2017-Dec-07 17:00N 51°21' E 003°49'2 4.0
2017-Dec-07 16:29N 51°21' E 003°52'0 0.1
2017-Dec-07 15:59N 51°21' E 003°52'0 0.1
2017-Dec-07 15:29N 51°21' E 003°52'0 0.0
2017-Dec-07 14:59N 51°21' E 003°52'0 0.0
2017-Dec-07 14:23N 51°21' E 003°52'0 0.0
2017-Dec-07 13:56N 51°21' E 003°52'0 0.1
2017-Dec-07 13:29N 51°21' E 003°52'0 0.1
2017-Dec-07 12:59N 51°21' E 003°52'0 0.1
2017-Dec-07 12:29N 51°21' E 003°52'0 0.1
2017-Dec-07 11:59N 51°21' E 003°52'0 0.2
2017-Dec-07 11:29N 51°21' E 003°52'0 0.3
2017-Dec-07 10:59N 51°21' E 003°52'0 0.1
2017-Dec-07 10:23N 51°21' E 003°52'0 0.0
2017-Dec-07 09:56N 51°21' E 003°52'0 0.0
2017-Dec-07 09:23N 51°21' E 003°52'0 0.0
2017-Dec-07 08:50N 51°21' E 003°52'0 0.0
2017-Dec-07 08:26N 51°21' E 003°52'0 0.1
2017-Dec-07 07:53N 51°21' E 003°52'0 0.0
2017-Dec-07 07:29N 51°21' E 003°52'0 0.0
2017-Dec-07 06:59N 51°21' E 003°52'0 0.0
2017-Dec-07 06:20N 51°21' E 003°52'0 0.1
2017-Dec-07 05:59N 51°21' E 003°52'0 0.0
2017-Dec-07 05:23N 51°21' E 003°52'0 0.3
2017-Dec-07 04:59N 51°21' E 003°52'0 0.2
2017-Dec-07 04:17N 51°21' E 003°52'0 0.1
2017-Dec-07 03:50N 51°21' E 003°52'0 0.0
2017-Dec-07 02:50N 51°21' E 003°52'0 0.0
2017-Dec-07 02:26N 51°21' E 003°52'0 0.0
2017-Dec-07 01:53N 51°21' E 003°52'0 0.0
2017-Dec-07 01:29N 51°21' E 003°52'0 0.0
2017-Dec-07 00:59N 51°21' E 003°52'0 0.0
2017-Dec-07 00:20N 51°21' E 003°52'0 0.1
2017-Dec-06 23:53N 51°21' E 003°52'0 0.2
2017-Dec-06 22:50N 51°21' E 003°52'0 0.2
2017-Dec-06 22:29N 51°21' E 003°52'0 0.1
2017-Dec-06 21:56N 51°21' E 003°52'0 0.0
2017-Dec-06 21:14N 51°21' E 003°52'0 0.1
2017-Dec-06 20:56N 51°21' E 003°52'  
Track history (hours):
 
Tides and Currents Weather Stations Pressure Air Temp Water Temp Dewpoint Dewpoint Depression Visibility Wind Speed Wind Dir Waves Ship Positions

Iolcos Pride

Last reported at 2017-Dec-11 02:15 UTC. Time now 2017-Dec-11 04:22 UTC.
Position N 51°23' E 002°41'.

Length 229 m; draft 8 m.

Type: Cargo ship. MMSI: 249945000.

Date/timePositionNaut miles runAvg speedWind from/ knotsBaromVisibWave heightAir tempDewpointWater temp
2017-Dec-11 02:15N 51°23' E 002°41'2 8.1
2017-Dec-11 02:00N 51°22' E 002°44'5 9.6
2017-Dec-11 01:30N 51°22' E 002°51'713.7
2017-Dec-11 01:00N 51°24' E 003°02'713.8
2017-Dec-11 00:31N 51°24' E 003°13'714.0
2017-Dec-11 00:00N 51°25' E 003°24'612.9
2017-Dec-10 23:30N 51°26' E 003°34'5 9.5
2017-Dec-10 23:00N 51°26' E 003°42'613.0
2017-Dec-10 22:30N 51°21' E 003°49'1 2.3
2017-Dec-10 22:00N 51°20' E 003°49'0 0.5
2017-Dec-10 21:31N 51°19' E 003°49'2 3.2
2017-Dec-10 21:00N 51°18' E 003°50'3 6.5
2017-Dec-10 20:30N 51°15' E 003°49'3 6.8
2017-Dec-10 20:01N 51°11' E 003°48'1 2.5
2017-Dec-10 19:30N 51°10' E 003°48'0 0.4
2017-Dec-10 18:58N 51°10' E 003°48'0 0.0
2017-Dec-10 18:25N 51°10' E 003°48'0 0.0
2017-Dec-10 17:55N 51°10' E 003°48'0 0.0
2017-Dec-10 17:19N 51°10' E 003°48'0 0.0
2017-Dec-10 16:55N 51°10' E 003°48'0 0.0
2017-Dec-10 16:25N 51°10' E 003°48'0 0.0
2017-Dec-10 15:55N 51°10' E 003°48'0 0.0
2017-Dec-10 15:25N 51°10' E 003°48'0 0.0
2017-Dec-10 14:55N 51°10' E 003°48'0 0.0
2017-Dec-10 14:25N 51°10' E 003°48'0 0.0
2017-Dec-10 13:58N 51°10' E 003°48'0 0.0
2017-Dec-10 13:25N 51°10' E 003°48'0 0.0
2017-Dec-10 12:58N 51°10' E 003°48'0 0.0
2017-Dec-10 12:25N 51°10' E 003°48'0 0.0
2017-Dec-10 11:55N 51°10' E 003°48'0 0.0
2017-Dec-10 11:25N 51°10' E 003°48'0 0.0
2017-Dec-10 10:55N 51°10' E 003°48'0 0.0
2017-Dec-10 10:28N 51°10' E 003°48'0 0.0
2017-Dec-10 09:55N 51°10' E 003°48'0 0.0
2017-Dec-10 09:25N 51°10' E 003°48'0 0.0
2017-Dec-10 08:58N 51°10' E 003°48'0 0.0
2017-Dec-10 08:25N 51°10' E 003°48'0 0.0
2017-Dec-10 07:55N 51°10' E 003°48'0 0.0
2017-Dec-10 07:25N 51°10' E 003°48'0 0.0
2017-Dec-10 06:55N 51°10' E 003°48'0 0.0
2017-Dec-10 06:28N 51°10' E 003°48'0 0.0
2017-Dec-10 05:58N 51°10' E 003°48'0 0.0
2017-Dec-10 05:25N 51°10' E 003°48'0 0.0
2017-Dec-10 04:55N 51°10' E 003°48'0 0.0
2017-Dec-10 04:28N 51°10' E 003°48'0 0.0
2017-Dec-10 03:58N 51°10' E 003°48'0 0.0
2017-Dec-10 03:28N 51°10' E 003°48'0 0.0
2017-Dec-10 02:58N 51°10' E 003°48'0 0.0
2017-Dec-10 02:25N 51°10' E 003°48'0 0.0
2017-Dec-10 01:58N 51°10' E 003°48'0 0.0
2017-Dec-10 01:28N 51°10' E 003°48'0 0.0
2017-Dec-10 00:55N 51°10' E 003°48'0 0.0
2017-Dec-10 00:28N 51°10' E 003°48'0 0.0
2017-Dec-09 23:55N 51°10' E 003°48'0 0.0
2017-Dec-09 23:28N 51°10' E 003°48'0 0.0
2017-Dec-09 22:58N 51°10' E 003°48'0 0.0
2017-Dec-09 22:25N 51°10' E 003°48'0 0.0
2017-Dec-09 21:58N 51°10' E 003°48'0 0.0
2017-Dec-09 21:25N 51°10' E 003°48'0 0.0
2017-Dec-09 20:58N 51°10' E 003°48'0 0.0
2017-Dec-09 20:28N 51°10' E 003°48'0 0.0
2017-Dec-09 19:55N 51°10' E 003°48'0 0.0
2017-Dec-09 19:25N 51°10' E 003°48'0 0.0
2017-Dec-09 18:58N 51°10' E 003°48'0 0.0
2017-Dec-09 18:25N 51°10' E 003°48'0 0.0
2017-Dec-09 17:55N 51°10' E 003°48'0 0.0
2017-Dec-09 17:25N 51°10' E 003°48'0 0.0
2017-Dec-09 16:55N 51°10' E 003°48'0 0.0
2017-Dec-09 16:25N 51°10' E 003°48'0 0.0
2017-Dec-09 15:55N 51°10' E 003°48'0 0.0
2017-Dec-09 15:25N 51°10' E 003°48'0 0.0
2017-Dec-09 14:58N 51°10' E 003°48'0 0.0
2017-Dec-09 14:25N 51°10' E 003°48'0 0.0
2017-Dec-09 13:55N 51°10' E 003°48'0 0.0
2017-Dec-09 13:25N 51°10' E 003°48'0 0.0
2017-Dec-09 12:55N 51°10' E 003°48'0 0.0
2017-Dec-09 12:28N 51°10' E 003°48'0 0.0
2017-Dec-09 11:55N 51°10' E 003°48'0 0.0
2017-Dec-09 11:25N 51°10' E 003°48'0 0.0
2017-Dec-09 10:58N 51°10' E 003°48'0 0.0
2017-Dec-09 10:25N 51°10' E 003°48'0 0.0
2017-Dec-09 09:58N 51°10' E 003°48'0 0.0
2017-Dec-09 09:28N 51°10' E 003°48'0 0.0
2017-Dec-09 08:58N 51°10' E 003°48'0 0.0
2017-Dec-09 08:25N 51°10' E 003°48'0 0.0
2017-Dec-09 07:58N 51°10' E 003°48'0 0.0
2017-Dec-09 07:22N 51°10' E 003°48'0 0.0
2017-Dec-09 06:58N 51°10' E 003°48'0 0.0
2017-Dec-09 06:28N 51°10' E 003°48'0 0.0
2017-Dec-09 05:58N 51°10' E 003°48'0 0.0
2017-Dec-09 05:28N 51°10' E 003°48'0 0.0
2017-Dec-09 04:52N 51°10' E 003°48'0 0.0
2017-Dec-09 04:28N 51°10' E 003°48'0 0.0
2017-Dec-09 03:58N 51°10' E 003°48'0 0.0
2017-Dec-09 03:28N 51°10' E 003°48'0 0.0
2017-Dec-09 02:58N 51°10' E 003°48'0 0.0
2017-Dec-09 02:28N 51°10' E 003°48'0 0.0
2017-Dec-09 01:58N 51°10' E 003°48'0 0.0
2017-Dec-09 01:28N 51°10' E 003°48'0 0.0
2017-Dec-09 00:58N 51°10' E 003°48'0 0.0
2017-Dec-09 00:28N 51°10' E 003°48'0 0.0
2017-Dec-08 23:55N 51°10' E 003°48'0 0.0
2017-Dec-08 23:28N 51°10' E 003°48'0 0.0
2017-Dec-08 22:55N 51°10' E 003°48'0 0.0
2017-Dec-08 22:28N 51°10' E 003°48'0 0.0
2017-Dec-08 21:58N 51°10' E 003°48'0 0.0
2017-Dec-08 21:28N 51°10' E 003°48'0 0.0
2017-Dec-08 20:55N 51°10' E 003°48'0 0.0
2017-Dec-08 20:28N 51°10' E 003°48'0 0.0
2017-Dec-08 19:55N 51°10' E 003°48'0 0.0
2017-Dec-08 19:25N 51°10' E 003°48'0 0.0
2017-Dec-08 18:55N 51°10' E 003°48'0 0.0
2017-Dec-08 18:28N 51°10' E 003°48'0 0.0
2017-Dec-08 17:58N 51°10' E 003°48'0 0.0
2017-Dec-08 17:19N 51°10' E 003°48'0 0.0
2017-Dec-08 16:55N 51°10' E 003°48'0 0.0
2017-Dec-08 16:28N 51°10' E 003°48'0 0.0
2017-Dec-08 15:55N 51°10' E 003°48'0 0.0
2017-Dec-08 15:28N 51°10' E 003°48'0 0.0
2017-Dec-08 14:52N 51°10' E 003°48'0 0.0
2017-Dec-08 14:28N 51°10' E 003°48'0 0.0
2017-Dec-08 13:58N 51°10' E 003°48'0 0.0
2017-Dec-08 13:25N 51°10' E 003°48'0 0.0
2017-Dec-08 12:58N 51°10' E 003°48'0 0.0
2017-Dec-08 12:25N 51°10' E 003°48'0 0.0
2017-Dec-08 11:55N 51°10' E 003°48'0 0.0
2017-Dec-08 11:28N 51°10' E 003°48'0 0.0
2017-Dec-08 10:58N 51°10' E 003°48'0 0.0
2017-Dec-08 10:28N 51°10' E 003°48'0 0.0
2017-Dec-08 09:55N 51°10' E 003°48'0 0.0
2017-Dec-08 09:25N 51°10' E 003°48'0 0.0
2017-Dec-08 08:55N 51°10' E 003°48'0 0.0
2017-Dec-08 08:28N 51°10' E 003°48'0 0.0
2017-Dec-08 07:52N 51°10' E 003°48'0 0.0
2017-Dec-08 07:28N 51°10' E 003°48'0 0.0
2017-Dec-08 06:55N 51°10' E 003°48'0 0.0
2017-Dec-08 06:25N 51°10' E 003°48'0 0.0
2017-Dec-08 05:52N 51°10' E 003°48'0 0.0
2017-Dec-08 05:28N 51°10' E 003°48'0 0.0
2017-Dec-08 04:55N 51°10' E 003°48'0 0.0
2017-Dec-08 04:28N 51°10' E 003°48'0 0.0
2017-Dec-08 03:58N 51°10' E 003°48'0 0.0
2017-Dec-08 03:25N 51°10' E 003°48'0 0.0
2017-Dec-08 02:58N 51°10' E 003°48'0 0.0
2017-Dec-08 02:25N 51°10' E 003°48'0 0.0
2017-Dec-08 01:55N 51°10' E 003°48'0 0.0
2017-Dec-08 01:28N 51°10' E 003°48'0 0.0
2017-Dec-08 00:58N 51°10' E 003°48'0 0.0
2017-Dec-08 00:28N 51°10' E 003°48'0 0.0
2017-Dec-07 23:58N 51°10' E 003°48'0 0.0
2017-Dec-07 23:28N 51°10' E 003°48'0 0.0
2017-Dec-07 22:58N 51°10' E 003°48'0 0.0
2017-Dec-07 22:28N 51°10' E 003°48'0 0.0
2017-Dec-07 21:58N 51°10' E 003°48'0 0.0
2017-Dec-07 21:25N 51°10' E 003°48'0 0.1
2017-Dec-07 21:00N 51°10' E 003°48'1 1.8
2017-Dec-07 20:30N 51°11' E 003°48'2 4.2
2017-Dec-07 20:01N 51°13' E 003°48'2 4.3
2017-Dec-07 19:30N 51°15' E 003°50'2 4.3
2017-Dec-07 19:00N 51°17' E 003°50'2 4.1
2017-Dec-07 18:30N 51°19' E 003°49'0 0.7
2017-Dec-07 17:59N 51°20' E 003°49'0 0.3
2017-Dec-07 17:30N 51°20' E 003°49'1 1.4
2017-Dec-07 17:00N 51°21' E 003°49'2 4.0
2017-Dec-07 16:29N 51°21' E 003°52'0 0.1
2017-Dec-07 15:59N 51°21' E 003°52'0 0.1
2017-Dec-07 15:29N 51°21' E 003°52'0 0.0
2017-Dec-07 14:59N 51°21' E 003°52'0 0.0
2017-Dec-07 14:23N 51°21' E 003°52'0 0.0
2017-Dec-07 13:56N 51°21' E 003°52'0 0.1
2017-Dec-07 13:29N 51°21' E 003°52'0 0.1
2017-Dec-07 12:59N 51°21' E 003°52'0 0.1
2017-Dec-07 12:29N 51°21' E 003°52'0 0.1
2017-Dec-07 11:59N 51°21' E 003°52'0 0.2
2017-Dec-07 11:29N 51°21' E 003°52'0 0.3
2017-Dec-07 10:59N 51°21' E 003°52'0 0.1
2017-Dec-07 10:23N 51°21' E 003°52'0 0.0
2017-Dec-07 09:56N 51°21' E 003°52'0 0.0
2017-Dec-07 09:23N 51°21' E 003°52'0 0.0
2017-Dec-07 08:50N 51°21' E 003°52'0 0.0
2017-Dec-07 08:26N 51°21' E 003°52'0 0.1
2017-Dec-07 07:53N 51°21' E 003°52'0 0.0
2017-Dec-07 07:29N 51°21' E 003°52'0 0.0
2017-Dec-07 06:59N 51°21' E 003°52'0 0.0
2017-Dec-07 06:20N 51°21' E 003°52'0 0.1
2017-Dec-07 05:59N 51°21' E 003°52'0 0.0
2017-Dec-07 05:23N 51°21' E 003°52'0 0.3
2017-Dec-07 04:59N 51°21' E 003°52'0 0.2
2017-Dec-07 04:17N 51°21' E 003°52'0 0.1
2017-Dec-07 03:50N 51°21' E 003°52'0 0.0
2017-Dec-07 02:50N 51°21' E 003°52'0 0.0
2017-Dec-07 02:26N 51°21' E 003°52'0 0.0
2017-Dec-07 01:53N 51°21' E 003°52'0 0.0
2017-Dec-07 01:29N 51°21' E 003°52'0 0.0
2017-Dec-07 00:59N 51°21' E 003°52'0 0.0
2017-Dec-07 00:20N 51°21' E 003°52'0 0.1
2017-Dec-06 23:53N 51°21' E 003°52'0 0.2
2017-Dec-06 22:50N 51°21' E 003°52'0 0.2
2017-Dec-06 22:29N 51°21' E 003°52'0 0.1
2017-Dec-06 21:56N 51°21' E 003°52'0 0.0
2017-Dec-06 21:14N 51°21' E 003°52'0 0.1
2017-Dec-06 20:56N 51°21' E 003°52'  

Dump ship's entire track history